createdAt,value
2022-09-30T00:02:15.181Z,72.83
2022-09-30T00:04:48.598Z,72.75
2022-09-30T00:07:21.172Z,72.64
2022-09-30T00:09:53.498Z,72.79
2022-09-30T00:12:27.522Z,73.00
2022-09-30T00:14:59.768Z,73.18
2022-09-30T00:17:32.053Z,72.98
2022-09-30T00:20:05.097Z,73.07
2022-09-30T00:22:37.081Z,73.00
2022-09-30T00:25:09.671Z,72.90
2022-09-30T00:27:42.195Z,73.01
2022-09-30T00:30:14.884Z,72.89
2022-09-30T00:32:47.118Z,73.03
2022-09-30T00:35:22.640Z,73.04
2022-09-30T00:37:55.381Z,73.21
2022-09-30T00:40:28.012Z,73.21
2022-09-30T00:43:00.589Z,73.33
2022-09-30T00:45:34.579Z,73.14
2022-09-30T00:48:13.284Z,73.13
2022-09-30T00:50:48.893Z,73.27
2022-09-30T00:53:25.156Z,73.18
2022-09-30T00:56:02.676Z,73.30
2022-09-30T00:58:40.870Z,73.58
2022-09-30T01:01:15.171Z,73.51
2022-09-30T01:03:50.864Z,73.27
2022-09-30T01:06:25.370Z,73.31
2022-09-30T01:08:58.678Z,73.60
2022-09-30T01:11:31.714Z,73.57
2022-09-30T01:14:06.732Z,73.28
2022-09-30T01:16:56.824Z,73.36
2022-09-30T01:19:49.041Z,73.29
2022-09-30T01:22:41.893Z,73.21
2022-09-30T01:25:38.920Z,73.34
2022-09-30T01:28:55.682Z,73.10
2022-09-30T01:31:43.359Z,73.33
2022-09-30T01:34:25.049Z,73.31
2022-09-30T01:37:10.687Z,73.48
2022-09-30T01:39:53.355Z,73.70
2022-09-30T01:42:35.310Z,73.43
2022-09-30T01:45:14.370Z,73.53
2022-09-30T01:47:52.204Z,73.39
2022-09-30T01:50:29.123Z,73.48
2022-09-30T01:53:07.637Z,73.58
2022-09-30T01:55:47.041Z,73.53
2022-09-30T01:58:26.744Z,73.37
2022-09-30T02:01:03.065Z,73.56
2022-09-30T02:03:38.776Z,73.45
2022-09-30T02:06:17.243Z,73.47
2022-09-30T02:08:52.871Z,73.46
2022-09-30T02:11:27.754Z,73.53
2022-09-30T02:14:05.215Z,73.61
2022-09-30T02:16:41.260Z,73.82
2022-09-30T02:19:20.640Z,73.82
2022-09-30T02:21:57.944Z,73.73
2022-09-30T02:24:37.159Z,73.91
2022-09-30T02:27:25.341Z,73.84
2022-09-30T02:30:01.733Z,73.90
2022-09-30T02:32:40.648Z,74.19
2022-09-30T02:35:20.048Z,74.12
2022-09-30T02:37:55.292Z,74.19
2022-09-30T02:40:32.856Z,74.28
2022-09-30T02:43:08.789Z,74.58
2022-09-30T02:45:50.480Z,74.43
2022-09-30T02:48:32.045Z,74.18
2022-09-30T02:51:11.662Z,74.09
2022-09-30T02:53:52.485Z,74.37
2022-09-30T02:56:31.311Z,74.38
2022-09-30T02:59:04.171Z,74.28
2022-09-30T03:01:41.948Z,74.39
2022-09-30T03:04:20.525Z,74.49
2022-09-30T03:06:52.809Z,74.46
2022-09-30T03:09:29.095Z,74.54
2022-09-30T03:12:11.640Z,74.47
2022-09-30T03:15:05.515Z,74.74
2022-09-30T03:17:48.529Z,74.69
2022-09-30T03:20:36.489Z,74.79
2022-09-30T03:23:25.347Z,74.76
2022-09-30T03:26:03.705Z,74.69
2022-09-30T03:28:40.146Z,74.99
2022-09-30T03:31:18.698Z,74.93
2022-09-30T03:33:56.782Z,75.25
2022-09-30T03:36:38.124Z,75.19
2022-09-30T03:39:23.937Z,74.80
2022-09-30T03:42:02.036Z,75.00
2022-09-30T03:44:39.734Z,74.62
2022-09-30T03:47:16.265Z,74.61
2022-09-30T03:49:51.677Z,74.49
2022-09-30T03:52:26.251Z,74.74
2022-09-30T03:55:02.232Z,74.44
2022-09-30T03:57:34.325Z,74.24
2022-09-30T04:00:10.733Z,74.08
2022-09-30T04:02:43.061Z,74.01
2022-09-30T04:05:15.392Z,74.15
2022-09-30T04:07:48.735Z,74.15
2022-09-30T04:10:20.886Z,74.15
2022-09-30T04:12:55.916Z,74.11
2022-09-30T04:15:28.679Z,74.42
2022-09-30T04:18:01.050Z,74.12
2022-09-30T04:20:33.929Z,74.06
2022-09-30T04:23:06.050Z,74.06
2022-09-30T04:25:38.622Z,74.13
2022-09-30T04:28:11.254Z,74.21
2022-09-30T04:30:45.254Z,74.16
2022-09-30T04:33:16.977Z,74.14
2022-09-30T04:35:49.777Z,73.96
2022-09-30T04:38:21.735Z,74.04
2022-09-30T04:40:55.918Z,74.11
2022-09-30T04:43:28.466Z,74.12
2022-09-30T04:46:01.553Z,74.04
2022-09-30T04:48:34.124Z,73.75
2022-09-30T04:51:06.513Z,73.54
2022-09-30T04:53:38.504Z,73.31
2022-09-30T04:56:11.680Z,73.38
2022-09-30T04:58:44.287Z,73.25
2022-09-30T05:01:19.169Z,73.27
2022-09-30T05:03:51.742Z,73.14
2022-09-30T05:06:23.750Z,73.20
2022-09-30T05:08:56.079Z,72.95
2022-09-30T05:11:28.178Z,72.89
2022-09-30T05:14:00.137Z,72.82
2022-09-30T05:16:32.332Z,72.72
2022-09-30T05:19:04.911Z,72.73
2022-09-30T05:21:37.029Z,73.10
2022-09-30T05:24:09.012Z,72.98
2022-09-30T05:26:41.549Z,73.17
2022-09-30T05:29:14.178Z,73.46
2022-09-30T05:31:47.520Z,73.50
2022-09-30T05:34:21.382Z,73.70
2022-09-30T05:36:53.525Z,73.75
2022-09-30T05:39:25.921Z,73.83
2022-09-30T05:42:00.636Z,73.97
2022-09-30T05:44:33.088Z,74.19
2022-09-30T05:47:05.823Z,74.21
2022-09-30T05:49:40.277Z,74.19
2022-09-30T05:52:15.150Z,74.17
2022-09-30T05:54:47.541Z,74.45
2022-09-30T05:57:21.273Z,74.54
2022-09-30T05:59:53.897Z,74.51
2022-09-30T06:02:26.287Z,74.41
2022-09-30T06:04:58.439Z,74.78
2022-09-30T06:07:30.642Z,74.68
2022-09-30T06:10:02.811Z,74.92
2022-09-30T06:12:36.333Z,75.01
2022-09-30T06:15:10.767Z,74.95
2022-09-30T06:17:43.876Z,75.16
2022-09-30T06:20:17.277Z,75.19
2022-09-30T06:22:49.885Z,75.29
2022-09-30T06:25:22.637Z,75.26
2022-09-30T06:27:54.641Z,75.45
2022-09-30T06:30:29.516Z,75.56
2022-09-30T06:33:03.756Z,75.70
2022-09-30T06:35:37.728Z,75.72
2022-09-30T06:38:09.802Z,75.93
2022-09-30T06:40:43.040Z,75.98
2022-09-30T06:43:15.628Z,76.12
2022-09-30T06:45:51.835Z,75.41
2022-09-30T06:48:36.051Z,75.53
2022-09-30T06:51:11.131Z,75.34
2022-09-30T06:53:43.368Z,75.53
2022-09-30T06:56:18.320Z,75.72
2022-09-30T06:58:50.280Z,75.71
2022-09-30T07:01:25.138Z,75.40
2022-09-30T07:03:58.151Z,75.75
2022-09-30T07:06:31.354Z,76.43
2022-09-30T07:09:03.384Z,76.81
2022-09-30T07:11:36.717Z,77.03
2022-09-30T07:14:10.336Z,76.97
2022-09-30T07:16:44.759Z,77.03
2022-09-30T07:19:17.930Z,77.09
2022-09-30T07:21:50.954Z,77.03
2022-09-30T07:24:22.988Z,77.16
2022-09-30T07:26:55.429Z,77.01
2022-09-30T07:29:27.873Z,77.40
2022-09-30T07:32:04.588Z,77.29
2022-09-30T07:34:37.863Z,76.69
2022-09-30T07:37:09.807Z,77.40
2022-09-30T07:39:42.246Z,77.98
2022-09-30T07:42:17.891Z,78.04
2022-09-30T07:44:54.552Z,77.83
2022-09-30T07:47:26.834Z,78.26
2022-09-30T07:50:00.053Z,78.58
2022-09-30T07:52:32.692Z,78.63
2022-09-30T07:55:05.071Z,78.08
2022-09-30T07:57:37.501Z,77.08
2022-09-30T08:00:37.387Z,76.88
2022-09-30T08:03:03.319Z,77.45
2022-09-30T08:05:42.195Z,77.95
2022-09-30T08:08:14.988Z,77.75
2022-09-30T08:11:09.250Z,76.89
2022-09-30T08:13:41.711Z,76.65
2022-09-30T08:17:06.260Z,77.32
2022-09-30T08:19:26.191Z,77.85
2022-09-30T08:21:58.797Z,77.02
2022-09-30T08:24:31.371Z,76.11
2022-09-30T08:27:04.180Z,75.23
2022-09-30T08:29:53.829Z,74.08
2022-09-30T08:32:27.041Z,73.76
2022-09-30T08:34:59.373Z,74.45
2022-09-30T08:37:31.473Z,74.21
2022-09-30T08:40:04.539Z,73.51
2022-09-30T08:42:51.733Z,73.61
2022-09-30T08:45:36.038Z,74.13
2022-09-30T08:48:20.354Z,73.54
2022-09-30T08:51:02.185Z,73.89
2022-09-30T08:53:37.833Z,73.70
2022-09-30T08:56:18.801Z,73.65
2022-09-30T08:58:52.978Z,73.47
2022-09-30T09:01:32.240Z,72.55
2022-09-30T09:04:06.658Z,71.88
2022-09-30T09:06:50.472Z,71.70
2022-09-30T09:09:50.191Z,71.30
2022-09-30T09:12:45.114Z,70.50
2022-09-30T09:15:36.708Z,70.31
2022-09-30T09:18:44.819Z,70.06
2022-09-30T09:21:37.926Z,68.33
2022-09-30T09:24:17.139Z,66.52
2022-09-30T09:26:51.134Z,66.55
2022-09-30T09:29:37.057Z,64.98
2022-09-30T09:32:21.350Z,64.93
2022-09-30T09:35:01.519Z,65.56
2022-09-30T09:38:00.043Z,65.50
2022-09-30T09:40:42.511Z,65.00
2022-09-30T09:43:26.193Z,63.59
2022-09-30T09:46:13.289Z,62.41
2022-09-30T09:48:45.980Z,63.21
2022-09-30T09:51:25.622Z,63.37
2022-09-30T09:54:02.985Z,63.08
2022-09-30T09:56:37.941Z,62.82
2022-09-30T09:59:13.840Z,62.51
2022-09-30T10:01:45.365Z,63.02
2022-09-30T10:04:22.078Z,63.69
2022-09-30T10:07:00.122Z,63.16
2022-09-30T10:09:35.260Z,63.13
2022-09-30T10:12:31.715Z,63.08
2022-09-30T10:15:16.719Z,63.18
2022-09-30T10:17:54.055Z,64.08
2022-09-30T10:20:33.594Z,64.19
2022-09-30T10:38:53.940Z,62.80
2022-09-30T10:41:29.489Z,62.36
2022-09-30T10:44:04.918Z,62.51
2022-09-30T10:46:39.727Z,62.37
2022-09-30T10:49:12.013Z,62.72
2022-09-30T10:51:48.432Z,62.13
2022-09-30T10:54:45.309Z,61.37
2022-09-30T10:57:22.283Z,61.64
2022-09-30T10:59:58.725Z,61.74
2022-09-30T11:02:35.932Z,61.05
2022-09-30T11:05:18.067Z,60.86
2022-09-30T11:07:54.994Z,61.52
2022-09-30T11:10:44.660Z,61.33
2022-09-30T11:13:24.615Z,62.04
2022-09-30T11:16:04.242Z,61.08
2022-09-30T11:18:43.545Z,60.45
2022-09-30T11:21:21.339Z,59.72
2022-09-30T11:23:58.712Z,59.18
2022-09-30T11:26:42.300Z,59.93
2022-09-30T11:29:32.373Z,58.40
2022-09-30T11:32:14.944Z,57.40
2022-09-30T11:34:59.166Z,57.70
2022-09-30T11:37:42.297Z,57.71
2022-09-30T11:40:30.905Z,58.42
2022-09-30T11:43:14.409Z,58.60
2022-09-30T11:46:17.078Z,57.95
2022-09-30T11:49:06.917Z,59.16
2022-09-30T11:51:46.896Z,58.49
2022-09-30T11:54:32.866Z,56.33
2022-09-30T11:57:10.957Z,57.13
2022-09-30T11:59:50.052Z,57.71
2022-09-30T12:02:37.864Z,57.90
2022-09-30T12:05:18.166Z,57.76
2022-09-30T12:07:54.699Z,57.74
2022-09-30T12:10:30.910Z,56.99
2022-09-30T12:13:08.283Z,56.29
2022-09-30T12:15:43.565Z,55.62
2022-09-30T12:18:19.408Z,56.45
2022-09-30T12:20:54.853Z,56.72
2022-09-30T12:23:33.077Z,56.74
2022-09-30T12:26:07.199Z,57.67
2022-09-30T12:29:04.236Z,57.73
2022-09-30T12:32:02.412Z,56.56
2022-09-30T12:34:49.055Z,57.35
2022-09-30T12:37:36.194Z,56.45
2022-09-30T12:44:21.728Z,55.19
2022-09-30T12:47:09.598Z,55.67
2022-09-30T12:49:44.759Z,56.41
2022-09-30T12:52:21.383Z,56.46
2022-09-30T12:54:58.712Z,56.61
2022-09-30T12:57:35.204Z,56.25
2022-09-30T13:00:16.148Z,55.16
2022-09-30T13:02:55.113Z,55.52
2022-09-30T13:05:53.847Z,54.12
2022-09-30T13:09:07.036Z,53.94
2022-09-30T13:11:44.306Z,54.27
2022-09-30T13:14:25.939Z,55.23
2022-09-30T13:17:20.333Z,56.33
2022-09-30T13:19:54.210Z,57.04
2022-09-30T13:22:59.291Z,58.22
2022-09-30T13:25:57.292Z,58.00
2022-09-30T13:28:39.179Z,57.10
2022-09-30T13:31:20.087Z,56.01
2022-09-30T13:34:11.560Z,55.74
2022-09-30T13:36:58.259Z,56.07
2022-09-30T13:39:31.748Z,55.62
2022-09-30T13:42:19.109Z,55.04
2022-09-30T13:45:08.057Z,54.62
2022-09-30T13:47:45.560Z,56.82
2022-09-30T13:50:22.283Z,57.40
2022-09-30T13:53:01.155Z,56.99
2022-09-30T13:55:39.737Z,55.32
2022-09-30T13:58:31.209Z,52.27
2022-09-30T14:01:12.989Z,52.64
2022-09-30T14:04:06.511Z,53.09
2022-09-30T14:06:52.088Z,53.05
2022-09-30T14:09:47.284Z,53.39
2022-09-30T14:12:31.937Z,51.39
2022-09-30T14:15:24.990Z,51.32
2022-09-30T14:18:23.232Z,51.24
2022-09-30T14:21:11.637Z,51.87
2022-09-30T14:23:44.937Z,52.84
2022-09-30T14:26:37.281Z,53.29
2022-09-30T14:29:17.497Z,53.22
2022-09-30T14:31:56.674Z,53.72
2022-09-30T14:34:31.605Z,53.98
2022-09-30T14:37:07.116Z,54.78
2022-09-30T14:39:40.011Z,54.37
2022-09-30T14:42:24.765Z,53.78
2022-09-30T14:45:02.265Z,54.24
2022-09-30T14:47:38.499Z,54.79
2022-09-30T14:50:17.161Z,55.78
2022-09-30T14:52:55.838Z,56.48
2022-09-30T14:55:31.214Z,56.39
2022-09-30T14:58:28.591Z,56.92
2022-09-30T15:01:07.830Z,57.68
2022-09-30T15:03:42.417Z,57.60
2022-09-30T15:06:22.392Z,57.55
2022-09-30T15:09:01.886Z,57.60
2022-09-30T15:11:39.593Z,57.87
2022-09-30T15:14:19.503Z,58.32
2022-09-30T15:16:53.061Z,58.24
2022-09-30T15:19:27.092Z,58.49
2022-09-30T15:22:03.168Z,58.78
2022-09-30T15:24:37.299Z,59.23
2022-09-30T15:27:15.628Z,59.06
2022-09-30T15:29:58.734Z,58.98
2022-09-30T15:32:34.629Z,59.53
2022-09-30T15:35:13.425Z,59.58
2022-09-30T15:37:47.160Z,59.99
2022-09-30T15:40:39.714Z,60.21
2022-09-30T15:43:16.428Z,61.51
2022-09-30T15:45:51.380Z,61.21
2022-09-30T15:48:38.178Z,61.17
2022-09-30T15:51:43.555Z,61.27
2022-09-30T15:54:39.338Z,61.69
2022-09-30T15:57:44.523Z,62.67
2022-09-30T16:00:35.512Z,62.48
2022-09-30T16:03:23.149Z,63.45
2022-09-30T16:06:06.041Z,63.89
2022-09-30T16:08:45.252Z,63.50
2022-09-30T16:11:27.625Z,63.90
2022-09-30T16:14:01.210Z,64.71
2022-09-30T16:16:36.622Z,65.27
2022-09-30T16:19:16.970Z,65.51
2022-09-30T16:21:51.668Z,65.88
2022-09-30T16:24:47.081Z,66.25
2022-09-30T16:27:31.335Z,66.13
2022-09-30T16:30:05.066Z,65.96
2022-09-30T16:32:41.373Z,66.50
2022-09-30T16:35:20.635Z,66.18
2022-09-30T16:37:59.144Z,66.13
2022-09-30T16:40:32.925Z,66.15
2022-09-30T16:43:07.470Z,65.96
2022-09-30T16:45:39.936Z,65.91
2022-09-30T16:48:18.022Z,66.12
2022-09-30T16:50:54.470Z,66.41
2022-09-30T16:53:26.933Z,66.68
2022-09-30T16:55:59.729Z,66.88
2022-09-30T16:58:35.056Z,67.26
2022-09-30T17:01:07.234Z,67.38
2022-09-30T17:03:39.548Z,67.52
2022-09-30T17:06:11.757Z,67.43
2022-09-30T17:08:45.108Z,67.41
2022-09-30T17:11:18.952Z,67.43
2022-09-30T17:13:51.129Z,67.48
2022-09-30T17:16:23.805Z,67.87
2022-09-30T17:18:56.456Z,68.13
2022-09-30T17:21:29.542Z,68.26
2022-09-30T17:24:01.969Z,68.18
2022-09-30T17:26:34.675Z,68.23
2022-09-30T17:29:30.824Z,68.20
2022-09-30T17:32:00.642Z,68.01
2022-09-30T17:34:32.812Z,68.15
2022-09-30T17:37:18.497Z,68.18
2022-09-30T17:39:51.650Z,68.28
2022-09-30T17:42:41.831Z,68.43
2022-09-30T17:45:14.555Z,68.61
2022-09-30T17:47:46.551Z,68.70
2022-09-30T17:50:22.467Z,68.98
2022-09-30T17:52:54.429Z,69.24
2022-09-30T17:55:27.870Z,69.37
2022-09-30T17:58:00.176Z,69.18
2022-09-30T18:00:42.914Z,69.20
2022-09-30T18:03:15.356Z,69.20
2022-09-30T18:05:47.370Z,69.10
2022-09-30T18:08:19.503Z,69.14
2022-09-30T18:10:52.107Z,69.29
2022-09-30T18:13:26.655Z,69.16
2022-09-30T18:16:02.019Z,69.30
2022-09-30T18:18:34.666Z,69.00
2022-09-30T18:21:07.601Z,69.18
2022-09-30T18:23:40.233Z,69.19
2022-09-30T18:26:13.277Z,69.62
2022-09-30T18:28:46.480Z,69.53
2022-09-30T18:31:28.390Z,69.53
2022-09-30T18:34:01.386Z,69.56
2022-09-30T18:36:33.860Z,69.51
2022-09-30T18:39:07.415Z,69.58
2022-09-30T18:41:45.821Z,69.59
2022-09-30T18:44:18.604Z,69.24
2022-09-30T18:46:50.792Z,69.22
2022-09-30T18:49:23.099Z,69.16
2022-09-30T18:51:55.905Z,69.06
2022-09-30T18:54:28.558Z,69.18
2022-09-30T18:57:01.031Z,68.83
2022-09-30T18:59:33.490Z,68.69
2022-09-30T19:02:05.866Z,68.80
2022-09-30T19:04:38.061Z,68.83
2022-09-30T19:07:10.352Z,68.96
2022-09-30T19:09:42.450Z,69.12
2022-09-30T19:12:15.154Z,69.15
2022-09-30T19:14:47.897Z,69.00
2022-09-30T19:17:20.166Z,69.22
2022-09-30T19:19:52.881Z,69.29
2022-09-30T19:22:26.071Z,69.38
2022-09-30T19:24:58.120Z,69.41
2022-09-30T19:27:30.167Z,69.86
2022-09-30T19:30:02.758Z,69.70
2022-09-30T19:32:35.846Z,69.40
2022-09-30T19:35:10.534Z,69.24
2022-09-30T19:37:56.569Z,69.38
2022-09-30T19:43:06.428Z,69.73
2022-09-30T19:45:38.565Z,69.82
2022-09-30T19:48:10.887Z,69.13
2022-09-30T19:50:43.021Z,69.11
2022-09-30T19:53:27.913Z,69.24
2022-09-30T19:56:10.407Z,69.77
2022-09-30T19:58:45.298Z,69.79
2022-09-30T20:01:17.639Z,69.92
2022-09-30T20:03:52.676Z,69.92
2022-09-30T20:06:24.978Z,70.16
2022-09-30T20:09:00.095Z,70.08
2022-09-30T20:11:35.483Z,69.93
2022-09-30T20:14:27.544Z,70.37
2022-09-30T20:17:00.061Z,70.30
2022-09-30T20:19:32.073Z,70.26
2022-09-30T20:22:05.366Z,70.26
2022-09-30T20:24:39.785Z,70.37
2022-09-30T20:27:12.392Z,70.31
2022-09-30T20:29:44.690Z,70.46
2022-09-30T20:32:16.758Z,70.32
2022-09-30T20:34:49.085Z,70.41
2022-09-30T20:37:22.093Z,70.51
2022-09-30T20:39:54.127Z,70.80
2022-09-30T20:42:32.851Z,70.73
2022-09-30T20:45:05.105Z,70.48
2022-09-30T20:47:37.171Z,70.59
2022-09-30T20:50:10.763Z,70.57
2022-09-30T20:52:43.252Z,70.62
2022-09-30T20:55:15.469Z,70.49
2022-09-30T20:57:47.713Z,70.49
2022-09-30T21:00:19.993Z,70.60
2022-09-30T21:02:53.702Z,70.78
2022-09-30T21:05:26.090Z,70.82
2022-09-30T21:08:00.041Z,71.00
2022-09-30T21:11:04.240Z,70.81
2022-09-30T21:14:35.760Z,70.81
2022-09-30T21:17:14.562Z,70.68
2022-09-30T21:19:59.245Z,70.88
2022-09-30T21:23:18.960Z,70.79
2022-09-30T21:31:20.703Z,70.74
2022-09-30T21:39:02.424Z,70.97
2022-09-30T21:41:41.590Z,71.05
2022-09-30T21:44:17.165Z,70.81
2022-09-30T21:46:50.648Z,70.88
2022-09-30T21:49:29.949Z,71.11
2022-09-30T21:52:32.732Z,71.27
2022-09-30T21:55:19.082Z,71.08
2022-09-30T21:57:54.789Z,71.33
2022-09-30T22:00:29.107Z,71.25
2022-09-30T22:03:02.521Z,71.30
2022-09-30T22:05:36.494Z,71.42
2022-09-30T22:08:08.537Z,71.31
2022-09-30T22:10:43.456Z,71.35
2022-09-30T22:13:15.697Z,71.76
2022-09-30T22:15:48.685Z,71.97
2022-09-30T22:18:21.671Z,71.95
2022-09-30T22:20:53.945Z,71.76
2022-09-30T22:23:26.236Z,71.87
2022-09-30T22:25:58.596Z,71.96
2022-09-30T22:28:31.208Z,72.25
2022-09-30T22:31:12.385Z,72.45
2022-09-30T22:34:02.399Z,72.38
2022-09-30T22:36:52.336Z,72.60
2022-09-30T22:39:25.487Z,72.65
2022-09-30T22:41:59.722Z,72.60
2022-09-30T22:44:33.624Z,72.75
2022-09-30T22:47:08.985Z,72.59
2022-09-30T22:49:41.620Z,72.59
2022-09-30T22:52:14.449Z,72.51
2022-09-30T22:54:46.373Z,72.70
2022-09-30T22:57:18.660Z,72.84
2022-09-30T22:59:52.488Z,72.83
2022-09-30T23:02:24.517Z,72.67
2022-09-30T23:04:56.629Z,72.65
2022-09-30T23:07:28.636Z,72.58
2022-09-30T23:10:01.432Z,72.01
2022-09-30T23:12:34.158Z,71.89
2022-09-30T23:15:07.459Z,72.20
2022-09-30T23:17:39.587Z,72.04
2022-09-30T23:20:12.705Z,71.51
2022-09-30T23:22:44.677Z,71.34
2022-09-30T23:25:16.857Z,71.06
2022-09-30T23:42:19.626Z,70.71
2022-09-30T23:44:51.996Z,70.80
2022-09-30T23:47:24.015Z,70.82
2022-09-30T23:49:56.517Z,70.68
2022-09-30T23:52:29.370Z,70.33
2022-09-30T23:55:01.484Z,69.88
2022-09-30T23:57:33.862Z,70.00
